Time;durP1;ratioP1;P1;durP2;ratioP2;P2;SDS_P1;SDS_P2;PMS_P1;PMS_P2;Temp;Humidity;BMP_temperature;BMP_pressure;BME280_temperature;BME280_humidity;BME280_pressure;Samples;Min_cycle;Max_cycle;Signal;HPM_P1;HPM_P2
2022/03/29 00:01:13;;;;;;;24.30;11.27;;;10.60;55.80;;;9.87;46.34;97116.38;4990839;28;20414;-74
2022/03/29 00:03:40;;;;;;;21.50;10.95;;;10.70;55.20;;;9.98;45.70;97120.72;4991293;28;20464;-74
2022/03/29 00:06:06;;;;;;;21.70;10.68;;;10.90;54.50;;;10.15;45.05;97117.94;4991179;28;20405;-74
2022/03/29 00:08:32;;;;;;;23.45;11.27;;;11.00;53.80;;;10.21;45.05;97115.09;4991144;28;20788;-74
2022/03/29 00:10:58;;;;;;;19.13;10.13;;;11.10;53.60;;;10.23;44.97;97110.31;4990684;28;20413;-73
2022/03/29 00:13:24;;;;;;;23.17;11.73;;;11.20;53.50;;;10.31;44.46;97109.84;4991213;28;20485;-73
2022/03/29 00:15:50;;;;;;;24.50;11.27;;;11.20;53.80;;;10.36;44.26;97098.50;4991026;28;20884;-74
2022/03/29 00:18:16;;;;;;;22.15;11.00;;;11.20;52.60;;;10.34;44.67;97101.41;4990986;28;20468;-74
2022/03/29 00:20:43;;;;;;;22.48;10.73;;;11.30;52.80;;;10.35;44.58;97103.00;4991484;28;20444;-73
2022/03/29 00:23:09;;;;;;;18.60;11.23;;;11.30;52.70;;;10.31;44.52;97090.53;4995100;28;20420;-74
2022/03/29 00:25:35;;;;;;;22.33;10.52;;;11.20;52.80;;;10.28;44.36;97091.06;4995139;28;20398;-74
2022/03/29 00:28:01;;;;;;;19.13;10.45;;;11.20;52.80;;;10.27;44.73;97094.75;4993734;28;20426;-74
2022/03/29 00:30:27;;;;;;;24.75;11.13;;;11.20;53.00;;;10.26;44.37;97086.00;4994576;28;20422;-74
2022/03/29 00:32:53;;;;;;;20.20;10.15;;;11.20;52.80;;;10.25;44.94;97075.69;4995006;28;20402;-74
2022/03/29 00:35:20;;;;;;;20.48;10.63;;;11.20;53.00;;;10.26;44.54;97077.28;4994905;28;20966;-74
2022/03/29 00:37:48;;;;;;;21.17;11.17;;;11.20;52.90;;;10.16;44.44;97074.53;4994750;28;20413;-73
2022/03/29 00:40:15;;;;;;;20.70;10.25;;;11.10;52.80;;;10.12;44.89;97076.91;4994401;28;20402;-73
2022/03/29 00:42:42;;;;;;;22.40;10.60;;;11.10;53.10;;;10.12;44.70;97070.81;4994860;28;20406;-75
2022/03/29 00:45:09;;;;;;;23.60;11.80;;;11.10;53.00;;;10.10;44.84;97065.78;4994741;28;20883;-75
2022/03/29 00:47:35;;;;;;;19.23;10.68;;;11.00;52.90;;;10.09;44.83;97064.19;4994727;28;20414;-75
2022/03/29 00:50:02;;;;;;;21.08;11.30;;;11.00;53.10;;;10.16;44.36;97059.47;4994455;28;20772;-75
2022/03/29 00:52:28;;;;;;;23.38;11.38;;;11.10;52.60;;;10.18;44.34;97057.41;4992953;28;20837;-75
2022/03/29 00:54:56;;;;;;;21.45;10.15;;;11.10;52.60;;;10.17;44.27;97057.63;4994555;28;20395;-75
2022/03/29 00:57:22;;;;;;;19.55;10.00;;;11.10;52.40;;;10.15;44.49;97057.09;4994476;28;20430;-73
2022/03/29 00:59:49;;;;;;;18.92;10.43;;;11.10;52.50;;;10.12;44.28;97053.09;4994415;28;20405;-73
2022/03/29 01:02:15;;;;;;;18.83;10.70;;;11.10;52.40;;;10.14;44.32;97047.56;4994131;28;20493;-74
2022/03/29 01:04:41;;;;;;;21.20;10.65;;;11.10;52.30;;;10.16;44.36;97048.09;4994399;28;20465;-74
2022/03/29 01:07:08;;;;;;;17.30;9.97;;;11.10;52.30;;;10.14;44.06;97045.72;4994340;28;20398;-74
2022/03/29 01:09:34;;;;;;;18.17;9.90;;;11.10;52.20;;;10.12;44.29;97041.72;4994096;28;20478;-74
2022/03/29 01:12:01;;;;;;;18.08;9.95;;;11.10;52.60;;;10.11;44.31;97038.28;4993904;28;20434;-74
2022/03/29 01:14:28;;;;;;;16.90;9.80;;;11.00;52.30;;;10.06;44.78;97033.78;4994176;28;20455;-74
2022/03/29 01:19:42;;;;;;;16.42;9.38;;;11.00;53.20;;;9.99;44.56;97025.28;4994022;28;20433;-74
2022/03/29 01:22:11;;;;;;;19.25;10.65;;;11.00;52.60;;;9.97;44.95;97023.94;4992252;28;20466;-73
2022/03/29 01:24:40;;;;;;;22.63;10.68;;;10.90;53.00;;;9.96;44.92;97017.84;4992806;28;20825;-73
2022/03/29 01:27:07;;;;;;;19.85;10.13;;;10.90;52.90;;;9.92;45.52;97015.97;4994052;28;20435;-74
2022/03/29 01:29:36;;;;;;;19.27;10.27;;;10.90;53.10;;;9.89;44.49;97008.53;4993844;28;20399;-75
2022/03/29 01:32:04;;;;;;;19.90;10.60;;;10.80;53.00;;;9.90;44.39;97012.78;4992722;28;20406;-73
2022/03/29 01:34:31;;;;;;;21.17;10.37;;;10.80;52.60;;;9.86;44.66;97009.03;4993642;28;20407;-74
2022/03/29 01:36:57;;;;;;;22.55;11.65;;;10.80;52.80;;;9.92;43.90;97003.53;4993737;28;20422;-74
2022/03/29 01:39:25;;;;;;;22.73;11.60;;;10.80;52.30;;;9.95;43.95;96994.31;4993526;28;20493;-74
2022/03/29 01:41:51;;;;;;;22.77;11.52;;;10.90;52.20;;;9.93;43.89;96991.09;4993194;28;20880;-74
2022/03/29 01:44:17;;;;;;;24.02;12.20;;;10.80;52.00;;;10.02;43.83;96993.03;4993770;28;20497;-74
2022/03/29 01:46:44;;;;;;;20.80;11.18;;;10.90;51.80;;;10.08;43.25;96989.34;4993690;28;20475;-73
2022/03/29 01:49:10;;;;;;;23.77;11.90;;;11.00;51.50;;;10.14;43.04;96982.25;4993463;28;20482;-74
2022/03/29 01:51:36;;;;;;;26.67;11.82;;;11.00;51.10;;;10.15;42.93;96975.13;4993200;28;20438;-74
2022/03/29 01:54:03;;;;;;;23.30;11.03;;;11.00;51.20;;;10.18;42.80;96978.06;4993586;28;20445;-73
2022/03/29 01:56:32;;;;;;;22.38;11.77;;;11.10;50.90;;;10.21;42.48;96968.81;4993374;28;20533;-73
2022/03/29 01:58:59;;;;;;;19.90;10.73;;;11.10;50.90;;;10.18;42.93;96972.75;4992066;28;20815;-74
2022/03/29 02:01:25;;;;;;;23.65;12.45;;;11.10;50.90;;;10.20;42.57;96965.38;4993070;28;20424;-74
2022/03/29 02:03:51;;;;;;;27.80;12.18;;;11.10;50.60;;;10.19;43.13;96960.34;4993319;28;20545;-73
2022/03/29 02:06:17;;;;;;;23.87;11.57;;;11.10;50.70;;;10.20;42.21;96964.56;4993422;28;20575;-74
2022/03/29 02:08:43;;;;;;;22.50;12.13;;;11.10;50.20;;;10.24;41.89;96955.06;4993245;28;20407;-74
2022/03/29 02:11:09;;;;;;;21.53;11.50;;;11.10;49.90;;;10.26;41.87;96955.59;4992739;28;20414;-74
2022/03/29 02:13:38;;;;;;;21.50;11.65;;;11.10;50.60;;;10.30;41.31;96961.97;4993242;28;20406;-74
2022/03/29 02:16:05;;;;;;;23.93;11.57;;;11.20;49.50;;;10.28;41.68;96951.66;4992972;28;20422;-74
2022/03/29 02:18:31;;;;;;;20.30;11.30;;;11.20;49.60;;;10.32;41.26;96946.63;4993081;28;20438;-74
2022/03/29 02:20:59;;;;;;;21.77;11.15;;;11.20;49.20;;;10.30;41.79;96948.75;4991857;28;22334;-74
2022/03/29 02:23:25;;;;;;;23.20;10.90;;;11.20;49.60;;;10.24;41.79;96939.19;4992997;28;20398;-74
2022/03/29 02:25:51;;;;;;;21.67;10.80;;;11.10;49.70;;;10.22;42.09;96933.38;4992909;28;20419;-74
2022/03/29 02:28:17;;;;;;;21.50;11.23;;;11.10;49.70;;;10.17;41.90;96936.78;4992914;28;20534;-73
2022/03/29 02:30:44;;;;;;;22.03;11.93;;;11.10;49.70;;;10.18;41.84;96927.00;4991096;28;20459;-73
2022/03/29 02:33:10;;;;;;;20.60;11.23;;;11.10;49.70;;;10.24;40.92;96924.09;4992696;28;20447;-74
2022/03/29 02:35:36;;;;;;;22.10;10.97;;;11.10;48.80;;;10.23;41.45;96932.31;4992677;28;20518;-74
2022/03/29 02:38:02;;;;;;;26.60;11.88;;;11.10;49.20;;;10.37;40.41;96926.28;4992489;28;20411;-73
2022/03/29 02:40:28;;;;;;;20.70;11.13;;;11.20;48.20;;;10.37;40.91;96923.66;4992210;28;20403;-74
2022/03/29 02:42:57;;;;;;;23.73;11.63;;;11.30;48.70;;;10.30;41.62;96920.41;4992642;28;20403;-74
2022/03/29 02:45:26;;;;;;;26.83;11.87;;;11.20;49.20;;;10.28;41.42;96919.91;4992379;28;20888;-73
2022/03/29 02:47:56;;;;;;;20.05;11.07;;;11.20;49.30;;;10.27;41.71;96920.97;4992482;28;20391;-73
2022/03/29 02:50:23;;;;;;;21.35;11.70;;;11.20;49.50;;;10.19;42.19;96915.38;4992109;28;20406;-74
2022/03/29 02:52:52;;;;;;;24.52;11.75;;;11.10;50.00;;;10.18;41.89;96914.56;4992408;28;20394;-73
2022/03/29 02:55:19;;;;;;;22.05;11.57;;;11.10;49.60;;;10.16;41.75;96921.13;4992422;28;20402;-74
2022/03/29 02:57:46;;;;;;;22.53;11.33;;;11.10;49.60;;;10.15;42.01;96911.63;4992267;28;20504;-74
2022/03/29 03:00:15;;;;;;;20.27;11.15;;;11.10;49.70;;;10.10;42.06;96913.19;4991842;28;20398;-74
2022/03/29 03:02:41;;;;;;;24.40;12.13;;;11.00;49.90;;;10.03;42.38;96910.00;4992240;28;20410;-74
2022/03/29 03:05:10;;;;;;;18.73;10.82;;;10.90;50.40;;;10.01;42.57;96916.59;4992158;28;20433;-74
2022/03/29 03:07:36;;;;;;;19.55;10.88;;;11.00;50.30;;;9.92;43.24;96911.00;4992193;28;20442;-74
2022/03/29 03:10:03;;;;;;;26.13;12.65;;;10.90;50.70;;;9.91;42.86;96912.06;4991853;28;20409;-73
2022/03/29 03:12:35;;;;;;;21.13;10.80;;;10.80;50.70;;;9.85;43.06;96907.03;4991743;28;20406;-74
2022/03/29 03:15:01;;;;;;;21.85;10.90;;;10.80;50.90;;;9.78;43.68;96909.06;4992073;28;20537;-73
2022/03/29 03:17:27;;;;;;;22.10;10.57;;;10.70;51.30;;;9.74;43.78;96902.72;4991894;28;20963;-74
2022/03/29 03:19:53;;;;;;;22.33;11.05;;;10.70;51.40;;;9.66;44.11;96899.53;4991825;28;20951;-74
2022/03/29 03:22:20;;;;;;;20.50;10.90;;;10.60;51.60;;;9.64;43.77;96908.75;4991597;28;20493;-74
2022/03/29 03:24:46;;;;;;;18.23;10.77;;;10.60;51.70;;;9.66;44.09;96901.38;4991738;28;20896;-74
2022/03/29 03:27:12;;;;;;;19.83;10.77;;;10.60;52.00;;;9.58;44.46;96896.56;4991830;28;20496;-73
2022/03/29 03:29:38;;;;;;;21.15;10.85;;;10.50;52.30;;;9.57;44.21;96894.97;4991632;28;20429;-74
2022/03/29 03:32:05;;;;;;;21.80;10.23;;;10.50;52.30;;;9.50;45.03;96883.84;4991309;28;20421;-74
2022/03/29 03:34:31;;;;;;;19.67;10.90;;;10.50;53.00;;;9.49;45.06;96890.16;4991709;28;20414;-74
2022/03/29 03:36:58;;;;;;;22.33;11.07;;;10.40;53.00;;;9.43;45.51;96883.28;4991662;28;20418;-74
2022/03/29 03:39:25;;;;;;;16.70;10.20;;;10.40;53.30;;;9.36;45.64;96880.06;5006993;23;20430;-79
2022/03/29 03:41:51;;;;;;;15.30;8.90;;;10.30;53.50;;;9.26;45.81;96873.66;4990518;28;20426;-79
2022/03/29 03:44:17;;;;;;;15.93;9.98;;;10.30;53.60;;;9.23;46.18;96887.41;4990566;28;20931;-79
2022/03/29 03:46:43;;;;;;;15.20;8.93;;;10.20;54.00;;;9.13;46.44;96883.88;4995088;28;20399;-79
2022/03/29 03:49:10;;;;;;;15.07;8.52;;;10.10;54.30;;;9.01;47.22;96889.34;4991050;28;20914;-79
2022/03/29 03:51:36;;;;;;;15.50;8.75;;;10.10;54.90;;;8.90;47.43;96888.47;4990992;28;20804;-79
2022/03/29 03:54:01;;;;;;;20.13;9.77;;;9.90;55.20;;;8.85;47.74;96898.19;4990497;28;20417;-80
2022/03/29 03:56:29;;;;;;;19.93;10.43;;;9.90;55.70;;;8.76;47.85;96891.78;4990592;28;20895;-79
2022/03/29 03:58:55;;;;;;;18.70;11.10;;;9.80;55.90;;;8.67;49.03;96888.78;4991060;28;20411;-79
2022/03/29 04:01:21;;;;;;;19.53;10.30;;;9.70;57.00;;;8.59;49.52;96896.38;4990796;28;20410;-80
2022/03/29 04:03:47;;;;;;;24.17;11.27;;;9.60;57.30;;;8.50;49.72;96888.09;4991304;28;21132;-80
2022/03/29 04:06:13;;;;;;;22.85;11.13;;;9.60;57.80;;;8.40;50.49;96891.47;4991222;28;20472;-77
2022/03/29 04:08:39;;;;;;;16.35;9.88;;;9.50;58.10;;;8.28;50.15;96893.41;4991224;28;20914;-78
2022/03/29 04:11:06;;;;;;;18.02;10.65;;;9.40;58.30;;;8.28;50.48;96890.75;4990704;28;20410;-78
2022/03/29 04:13:34;;;;;;;18.27;10.45;;;9.30;58.70;;;8.09;50.65;96887.69;4991097;28;20941;-78
2022/03/29 04:16:00;;;;;;;18.27;10.02;;;9.10;58.90;;;8.04;51.16;96877.06;4990924;28;20839;-78
2022/03/29 04:18:26;;;;;;;20.45;11.40;;;9.10;59.10;;;8.03;51.70;96888.66;4990912;28;20410;-79
2022/03/29 04:20:53;;;;;;;16.73;9.87;;;9.10;60.60;;;7.93;51.56;96879.84;4990634;28;20517;-79
2022/03/29 04:23:19;;;;;;;21.03;11.53;;;9.00;59.60;;;7.84;52.43;96879.47;4991118;28;20463;-79
2022/03/29 04:25:44;;;;;;;16.02;10.23;;;8.90;60.60;;;7.72;52.32;96876.97;4991059;28;20741;-77
2022/03/29 04:28:10;;;;;;;22.10;11.35;;;8.80;60.70;;;7.64;53.50;96873.97;4990999;28;20409;-77
2022/03/29 04:30:38;;;;;;;21.85;12.23;;;8.70;61.70;;;7.55;52.70;96876.22;4990627;28;20406;-80
2022/03/29 04:33:04;;;;;;;21.40;11.68;;;8.60;61.70;;;7.57;53.00;96871.50;4991030;28;20482;-79
2022/03/29 04:35:30;;;;;;;19.77;10.98;;;8.60;61.90;;;7.55;53.26;96872.78;4990848;28;20414;-79
2022/03/29 04:37:56;;;;;;;25.38;11.93;;;8.60;62.10;;;7.58;53.23;96867.84;4990819;28;20501;-79
2022/03/29 04:40:22;;;;;;;23.30;11.63;;;8.60;62.20;;;7.54;53.01;96865.91;4990152;28;20414;-79
2022/03/29 04:42:50;;;;;;;20.67;9.60;;;8.60;62.20;;;7.51;52.77;96861.16;5006060;28;20421;-78
2022/03/29 04:45:18;;;;;;;22.38;10.15;;;8.60;61.80;;;7.54;53.07;96863.28;4990742;28;20447;-77
2022/03/29 04:47:47;;;;;;;17.27;9.73;;;8.60;62.10;;;7.52;52.85;96870.66;4990864;28;20449;-78
2022/03/29 04:50:15;;;;;;;19.92;11.10;;;8.60;61.80;;;7.58;53.30;96857.31;4990359;28;20476;-78
2022/03/29 04:52:44;;;;;;;17.73;10.57;;;8.70;62.30;;;7.56;52.90;96872.53;4990812;28;20399;-78
2022/03/29 04:55:11;;;;;;;17.25;11.27;;;8.60;62.10;;;7.59;53.16;96860.72;4990785;28;20448;-80
2022/03/29 04:57:37;;;;;;;23.50;12.80;;;8.60;62.30;;;7.50;54.01;96859.56;4990955;28;20529;-78
2022/03/29 05:00:04;;;;;;;24.30;11.77;;;8.50;63.30;;;7.50;54.31;96867.47;4990372;28;20413;-76
2022/03/29 05:02:31;;;;;;;20.65;11.13;;;8.50;63.60;;;7.35;54.06;96860.97;4990474;28;20875;-78
2022/03/29 05:04:58;;;;;;;21.20;11.03;;;8.50;63.40;;;7.35;54.79;96857.53;4990544;28;20406;-79
2022/03/29 05:07:24;;;;;;;21.02;10.82;;;8.40;63.80;;;7.28;54.54;96856.91;4992393;28;20414;-78
2022/03/29 05:09:50;;;;;;;20.02;12.07;;;8.40;64.20;;;7.23;54.50;96862.88;4990348;28;21088;-78
2022/03/29 05:12:16;;;;;;;23.43;12.00;;;8.30;64.30;;;7.16;55.85;96854.34;4986127;28;20448;-79
2022/03/29 05:14:43;;;;;;;21.38;11.27;;;8.20;65.30;;;7.15;55.45;96850.13;4989148;28;20421;-77
2022/03/29 05:17:09;;;;;;;16.70;10.00;;;8.20;65.30;;;7.04;54.99;96851.03;4990477;28;20414;-79
2022/03/29 05:19:35;;;;;;;23.80;11.80;;;8.20;65.00;;;7.11;55.73;96850.88;5008861;28;20760;-78
2022/03/29 05:22:03;;;;;;;18.23;11.20;;;8.20;65.70;;;7.03;55.42;96857.34;4990744;28;20429;-77
2022/03/29 05:24:28;;;;;;;20.02;11.65;;;8.20;65.40;;;7.13;55.87;96851.44;4991054;28;20422;-79
2022/03/29 05:26:54;;;;;;;27.15;11.68;;;8.20;65.80;;;7.15;55.52;96863.28;4987288;28;20407;-78
2022/03/29 05:29:21;;;;;;;24.77;12.23;;;8.20;65.90;;;7.14;55.42;96855.66;4983925;28;20418;-78
2022/03/29 05:31:47;;;;;;;24.45;11.77;;;8.20;65.80;;;7.13;55.68;96865.38;4985706;28;20420;-80
2022/03/29 05:34:16;;;;;;;26.53;12.17;;;8.20;66.10;;;7.16;57.03;96858.81;4990428;28;20463;-81
2022/03/29 05:36:44;;;;;;;19.17;10.57;;;8.20;67.00;;;7.13;56.20;96860.13;4989527;28;20425;-81
2022/03/29 05:39:13;;;;;;;18.30;11.10;;;8.20;66.50;;;7.14;55.51;96853.78;4993327;28;20418;-80
2022/03/29 05:41:39;;;;;;;22.77;11.68;;;8.20;66.30;;;7.23;57.40;96851.56;4993140;28;20760;-80
2022/03/29 05:44:05;;;;;;;20.35;11.05;;;8.20;67.50;;;7.26;56.46;96856.34;4993722;28;20410;-80
2022/03/29 05:49:15;;;;;;;19.73;11.50;;;8.40;67.60;;;7.27;56.95;96844.78;4993294;28;20506;-80
2022/03/29 05:51:42;;;;;;;20.60;11.40;;;8.30;68.10;;;7.34;56.70;96848.03;4993243;28;20417;-76
2022/03/29 05:54:08;;;;;;;18.50;10.30;;;8.40;67.80;;;7.43;56.61;96840.50;4993526;28;20406;-77
2022/03/29 05:56:35;;;;;;;22.38;11.82;;;8.50;67.60;;;7.51;57.62;96856.69;4991623;28;20517;-79
2022/03/29 05:59:01;;;;;;;21.60;11.70;;;8.50;68.30;;;7.56;57.15;96845.41;4990599;28;20826;-79
2022/03/29 06:01:27;;;;;;;24.20;11.88;;;8.50;68.40;;;7.54;56.61;96847.47;4986505;28;20435;-77
2022/03/29 06:03:53;;;;;;;17.05;9.90;;;8.60;67.90;;;7.61;56.37;96846.25;4984915;28;20478;-77
2022/03/29 06:06:19;;;;;;;17.75;9.98;;;8.60;67.50;;;7.71;56.31;96853.50;4984373;28;20403;-79
2022/03/29 06:08:46;;;;;;;16.27;9.75;;;8.70;67.50;;;7.82;56.48;96846.53;4988804;28;20425;-77
2022/03/29 06:11:13;;;;;;;19.87;9.73;;;8.80;67.70;;;7.90;56.19;96854.75;4982441;28;20418;-76
2022/03/29 06:13:40;;;;;;;17.55;10.57;;;8.90;67.50;;;8.01;56.56;96848.56;4990412;28;20406;-76
2022/03/29 06:16:06;;;;;;;19.65;11.15;;;9.00;67.80;;;8.07;57.58;96857.31;4993230;28;20497;-82
2022/03/29 06:18:33;;;;;;;18.95;11.40;;;9.00;68.60;;;8.11;57.10;96853.97;4992457;28;20418;-81
2022/03/29 06:20:59;;;;;;;18.63;10.90;;;9.10;68.50;;;8.21;56.59;96852.44;4992491;28;20475;-81
2022/03/29 06:23:25;;;;;;;21.52;10.98;;;9.20;68.20;;;8.32;57.02;96854.19;4993039;28;20915;-81
2022/03/29 06:25:51;;;;;;;21.92;12.10;;;9.30;68.30;;;8.42;57.26;96855.06;4992932;28;20410;-81
2022/03/29 06:28:17;;;;;;;17.40;10.60;;;9.40;68.50;;;8.50;56.37;96856.44;4992645;28;20931;-81
2022/03/29 06:30:45;;;;;;;18.35;9.98;;;9.40;68.00;;;8.60;56.00;96861.03;4992245;28;20489;-81
2022/03/29 06:33:11;;;;;;;14.18;9.05;;;9.50;67.50;;;8.71;55.70;96858.25;4992622;28;20456;-81
2022/03/29 06:35:38;;;;;;;15.35;9.50;;;9.60;67.30;;;8.82;55.65;96862.53;4992607;28;20418;-81
2022/03/29 06:38:06;;;;;;;17.45;10.38;;;9.70;67.10;;;8.95;55.36;96869.22;4992651;28;20421;-81
2022/03/29 06:40:34;;;;;;;16.55;9.40;;;9.80;66.70;;;9.06;55.05;96862.97;4991917;28;20772;-81
2022/03/29 06:43:01;;;;;;;14.80;9.25;;;10.00;66.60;;;9.16;55.32;96867.53;4992553;28;20410;-81
2022/03/29 06:45:28;;;;;;;15.10;9.00;;;10.10;66.80;;;9.24;55.01;96867.88;4992568;28;20769;-81
2022/03/29 06:47:58;;;;;;;16.67;9.85;;;10.20;66.50;;;9.35;54.60;96868.69;4991420;28;20512;-81
2022/03/29 06:50:24;;;;;;;15.70;8.80;;;10.20;66.10;;;9.44;54.17;96876.94;4995806;28;20405;-81
2022/03/29 06:52:50;;;;;;;15.30;9.30;;;10.30;65.60;;;9.52;54.22;96868.53;5000699;28;20402;-81
2022/03/29 06:55:18;;;;;;;14.63;8.43;;;10.40;66.10;;;9.60;54.32;96874.13;4992128;28;20430;-81
2022/03/29 06:57:44;;;;;;;12.98;8.48;;;10.50;65.60;;;9.69;54.49;96875.25;4992093;28;20450;-81
2022/03/29 07:00:12;;;;;;;14.27;8.40;;;10.60;65.80;;;9.77;54.65;96867.88;4991812;28;20413;-81
2022/03/29 07:02:39;;;;;;;18.10;10.02;;;10.70;66.10;;;9.84;54.46;96874.50;4992593;28;20407;-81
2022/03/29 07:05:08;;;;;;;16.02;9.88;;;10.70;65.60;;;9.94;53.78;96879.03;4993018;28;20835;-80
2022/03/29 07:07:34;;;;;;;15.30;9.45;;;10.80;65.00;;;10.02;53.40;96866.09;4995678;28;20415;-80
2022/03/29 07:12:49;;;;;;;18.15;10.07;;;11.00;63.80;;;10.26;52.04;96870.94;4990678;28;20963;-81
2022/03/29 07:15:16;;;;;;;15.05;9.65;;;11.10;62.80;;;10.36;52.57;96868.34;4998983;28;20509;-81
2022/03/29 07:17:43;;;;;;;15.60;9.32;;;11.20;63.30;;;10.43;52.62;96871.53;5006985;28;20517;-81
2022/03/29 07:20:12;;;;;;;14.00;8.48;;;11.30;63.50;;;10.50;53.05;96868.63;4991192;28;20782;-81
2022/03/29 07:22:37;;;;;;;13.98;8.80;;;11.30;63.80;;;10.57;52.97;96862.00;4991775;28;20402;-82
2022/03/29 07:25:05;;;;;;;14.52;8.63;;;11.40;63.70;;;10.64;53.16;96862.56;4991991;28;20506;-82
2022/03/29 07:27:31;;;;;;;17.65;9.18;;;11.50;63.90;;;10.70;52.87;96861.50;4991936;28;20407;-77
2022/03/29 07:29:57;;;;;;;15.60;9.00;;;11.60;63.80;;;10.79;52.69;96854.63;4990983;28;20446;-76
2022/03/29 07:32:23;;;;;;;19.20;10.10;;;11.60;63.50;;;10.88;52.53;96856.72;4991045;28;20438;-76
2022/03/29 07:34:49;;;;;;;18.50;9.70;;;11.70;63.40;;;10.97;51.94;96861.25;4991521;28;20446;-76
2022/03/29 07:37:16;;;;;;;19.08;11.30;;;11.80;62.50;;;11.05;50.63;96868.63;4991704;28;20830;-77
2022/03/29 07:39:42;;;;;;;17.98;10.60;;;11.90;61.70;;;11.13;50.80;96865.44;4991398;28;20403;-77
2022/03/29 07:42:08;;;;;;;17.70;10.68;;;11.90;61.10;;;11.24;50.85;96860.94;5001388;28;20435;-78
2022/03/29 07:44:34;;;;;;;15.93;9.27;;;12.00;61.00;;;11.36;50.78;96865.94;4986428;28;20426;-77
2022/03/29 07:47:00;;;;;;;15.97;9.87;;;12.10;61.00;;;11.45;50.83;96859.81;4987202;28;20410;-78
2022/03/29 07:49:29;;;;;;;14.60;9.27;;;12.20;61.10;;;11.54;51.05;96855.56;4989153;28;20407;-75
2022/03/29 07:51:55;;;;;;;16.63;9.63;;;12.30;61.20;;;11.63;50.85;96853.16;4989152;28;20407;-76
2022/03/29 07:54:22;;;;;;;17.67;9.83;;;12.40;61.00;;;11.71;50.18;96855.25;4991036;28;20406;-79
2022/03/29 07:56:48;;;;;;;15.45;9.35;;;12.50;60.40;;;11.81;49.82;96849.91;4994768;28;20429;-75
2022/03/29 07:59:14;;;;;;;20.98;10.10;;;12.60;59.90;;;11.92;49.04;96850.69;5010707;28;20404;-76
2022/03/29 08:01:40;;;;;;;16.55;9.77;;;12.70;59.30;;;12.02;48.47;96850.66;5010287;28;20809;-76
2022/03/29 08:04:07;;;;;;;16.30;9.30;;;12.80;58.70;;;12.13;48.31;96849.50;5010723;28;20408;-76
2022/03/29 08:06:33;;;;;;;17.23;9.98;;;12.90;58.40;;;12.24;48.19;96847.59;5010752;28;20400;-76
2022/03/29 08:08:59;;;;;;;18.30;10.32;;;13.00;58.10;;;12.37;48.29;96849.63;5010531;28;20420;-77
2022/03/29 08:11:27;;;;;;;17.77;9.77;;;13.10;58.10;;;12.52;48.23;96854.06;5010219;28;20408;-77
2022/03/29 08:13:54;;;;;;;17.52;9.60;;;13.20;58.00;;;12.66;47.40;96844.41;5010627;28;20412;-75
2022/03/29 08:16:20;;;;;;;13.55;8.82;;;13.40;57.60;;;12.82;47.24;96848.53;5010513;28;20875;-75
2022/03/29 08:18:46;;;;;;;14.68;9.15;;;13.50;57.10;;;12.94;47.02;96848.94;5010431;28;20400;-76
2022/03/29 08:23:59;;;;;;;17.63;9.55;;;13.80;55.70;;;13.22;45.40;96852.72;4986969;28;20429;-77
2022/03/29 08:26:26;;;;;;;14.82;8.77;;;13.90;55.00;;;13.35;44.76;96861.91;4990874;28;20399;-74
2022/03/29 08:28:52;;;;;;;16.13;8.90;;;14.00;54.30;;;13.48;44.51;96856.69;4990574;28;20827;-74
2022/03/29 08:31:18;;;;;;;14.88;9.32;;;14.20;54.00;;;13.63;44.28;96865.59;4990446;28;20415;-74
2022/03/29 08:33:44;;;;;;;15.70;9.20;;;14.30;53.60;;;13.76;44.02;96865.69;5005911;28;20422;-74
2022/03/29 08:36:10;;;;;;;15.10;9.23;;;14.40;53.40;;;13.91;43.79;96862.84;4989473;28;20780;-75
2022/03/29 08:38:36;;;;;;;16.05;9.52;;;14.60;53.20;;;14.05;43.41;96868.28;4990575;28;20537;-75
2022/03/29 08:41:05;;;;;;;15.93;9.40;;;14.70;52.80;;;14.14;43.33;96853.25;5005398;28;20449;-75
2022/03/29 08:43:32;;;;;;;15.88;8.73;;;14.80;52.50;;;14.23;43.19;96856.06;4994538;28;20460;-73
2022/03/29 08:46:00;;;;;;;14.60;9.00;;;14.90;52.70;;;14.32;42.85;96852.47;4994772;28;20453;-76
2022/03/29 08:48:28;;;;;;;15.95;9.40;;;15.00;51.90;;;14.44;42.48;96852.06;4983634;28;20822;-74
2022/03/29 08:50:57;;;;;;;15.25;8.82;;;15.10;51.70;;;14.55;42.53;96850.84;4993956;28;20445;-75
2022/03/29 08:53:24;;;;;;;15.07;9.25;;;15.20;51.60;;;14.65;42.11;96855.25;4994610;28;20760;-75
2022/03/29 08:55:50;;;;;;;15.75;8.95;;;15.30;51.10;;;14.76;41.90;96848.66;4988308;28;20822;-80
2022/03/29 08:58:17;;;;;;;14.63;9.45;;;15.40;50.90;;;14.87;41.79;96851.97;4994153;28;20422;-80
2022/03/29 09:00:46;;;;;;;17.77;9.70;;;15.50;50.60;;;14.98;41.44;96848.03;4989818;28;20433;-80
2022/03/29 09:03:14;;;;;;;14.32;9.25;;;15.60;50.20;;;15.18;41.54;96845.06;4996863;28;20408;-80
2022/03/29 09:05:40;;;;;;;16.33;9.32;;;15.80;50.20;;;15.38;41.20;96841.22;4982666;28;20423;-80
2022/03/29 09:08:12;;;;;;;15.83;9.27;;;16.00;50.00;;;15.54;40.69;96839.88;4988153;28;20605;-79
2022/03/29 09:10:44;;;;;;;15.63;9.52;;;16.10;49.30;;;15.74;40.36;96849.38;4992620;28;20400;-79
2022/03/29 09:13:19;;;;;;;14.37;8.73;;;16.30;48.90;;;15.90;40.26;96841.84;4990170;28;20421;-79
2022/03/29 09:15:47;;;;;;;14.48;9.05;;;16.50;48.70;;;16.06;39.96;96840.47;4984451;28;20511;-79
2022/03/29 09:18:13;;;;;;;14.30;8.85;;;16.60;48.20;;;16.18;39.37;96846.84;4983587;28;20463;-79
2022/03/29 09:20:40;;;;;;;15.95;9.30;;;16.80;47.90;;;16.32;38.94;96840.69;4984391;28;21045;-79
2022/03/29 09:23:13;;;;;;;15.82;9.68;;;16.90;47.30;;;16.39;38.01;96841.84;4980355;28;20972;-77
2022/03/29 09:25:47;;;;;;;17.58;9.25;;;17.00;46.50;;;16.47;38.02;96840.34;4983842;28;20422;-75
2022/03/29 09:28:15;;;;;;;14.35;8.85;;;17.00;46.20;;;16.60;38.05;96840.34;4985764;28;20537;-74
2022/03/29 09:30:44;;;;;;;17.02;9.65;;;17.20;46.20;;;16.75;37.87;96841.88;4993456;28;20414;-76
2022/03/29 09:33:14;;;;;;;18.70;10.27;;;17.30;46.00;;;16.89;37.10;96834.59;4990814;28;20450;-80
2022/03/29 09:35:59;;;;;;;21.65;11.07;;;17.40;45.70;;;17.03;36.80;96831.84;4991108;28;20726;-79
2022/03/29 09:38:27;;;;;;;18.40;10.35;;;17.60;44.90;;;17.19;36.85;96832.25;4997047;28;20418;-78
2022/03/29 09:40:55;;;;;;;18.35;11.13;;;17.70;44.80;;;17.34;36.53;96831.84;5028495;23;20438;-73
2022/03/29 09:43:26;;;;;;;21.65;10.90;;;17.90;44.60;;;17.51;36.46;96823.91;5023899;28;20825;-72
2022/03/29 09:45:55;;;;;;;28.10;12.88;;;18.00;44.50;;;17.61;35.84;96830.84;5013346;28;21005;-73
2022/03/29 09:48:26;;;;;;;28.75;13.45;;;18.20;43.70;;;17.60;35.15;96823.91;5010594;28;20412;-72
2022/03/29 09:50:58;;;;;;;21.25;11.93;;;18.20;42.60;;;17.69;34.73;96817.53;4997705;28;20452;-74
2022/03/29 09:53:35;;;;;;;19.33;11.27;;;18.20;42.20;;;17.75;34.39;96815.50;5005639;28;20922;-74
2022/03/29 09:56:02;;;;;;;23.95;12.10;;;18.30;42.00;;;17.88;34.24;96811.13;5004921;28;20948;-74
2022/03/29 09:58:28;;;;;;;16.38;10.85;;;18.40;41.90;;;17.97;34.08;96815.41;4995086;28;20426;-73
2022/03/29 10:00:55;;;;;;;17.52;10.63;;;18.50;41.60;;;18.13;34.03;96797.00;4999060;28;20413;-71
2022/03/29 10:03:26;;;;;;;20.02;11.80;;;18.60;41.60;;;18.19;33.80;96793.09;4994267;28;20513;-72
2022/03/29 10:05:54;;;;;;;20.27;12.25;;;18.70;41.00;;;18.29;33.16;96792.75;5007603;28;20403;-72
2022/03/29 10:11:13;;;;;;;24.38;11.75;;;18.90;39.60;;;18.58;32.89;96789.47;5012378;28;20397;-72
2022/03/29 10:13:41;;;;;;;18.50;11.30;;;19.00;40.00;;;18.76;32.54;96774.94;5012699;28;20543;-72
2022/03/29 10:16:12;;;;;;;19.50;11.52;;;19.30;39.80;;;18.88;31.97;96768.91;5009256;28;20406;-73
2022/03/29 10:18:41;;;;;;;20.77;12.65;;;19.40;39.20;;;18.83;31.39;96771.78;4992848;28;20800;-72
2022/03/29 10:21:11;;;;;;;21.35;12.25;;;19.40;38.30;;;18.74;31.37;96763.75;4992585;28;20457;-71
2022/03/29 10:23:38;;;;;;;28.67;14.30;;;19.40;38.30;;;18.51;30.65;96759.63;4993057;28;20954;-72
2022/03/29 10:26:05;;;;;;;21.77;12.20;;;19.20;37.10;;;18.55;30.99;96764.06;4992875;28;20553;-72